Time;durP1;ratioP1;P1;durP2;ratioP2;P2;SDS_P1;SDS_P2;PMS_P1;PMS_P2;Temp;Humidity;BMP_temperature;BMP_pressure;BME280_temperature;BME280_humidity;BME280_pressure;Samples;Min_cycle;Max_cycle;Signal;HPM_P1;HPM_P2
2020/12/25 00:01:31;;;;;;;2.90;2.60;;;5.70;99.90;;;;;;4996012;28;20458;-61
2020/12/25 00:03:59;;;;;;;8.00;3.40;;;5.70;99.90;;;;;;4995705;28;20458;-61
2020/12/25 00:06:34;;;;;;;3.97;3.00;;;5.70;99.90;;;;;;4995794;28;20462;-61
2020/12/25 00:09:01;;;;;;;3.03;2.63;;;5.70;99.90;;;;;;4996060;28;20456;-61
2020/12/25 00:11:33;;;;;;;4.80;3.30;;;5.70;99.90;;;;;;4996474;28;20493;-61
2020/12/25 00:13:59;;;;;;;3.57;3.00;;;5.70;99.90;;;;;;4995838;28;20461;-61
2020/12/25 00:16:26;;;;;;;4.37;3.10;;;5.70;99.90;;;;;;4999522;28;20927;-62
2020/12/25 00:18:52;;;;;;;3.10;2.60;;;5.70;99.90;;;;;;5000628;28;20511;-61
2020/12/25 00:21:19;;;;;;;7.47;3.10;;;5.70;99.90;;;;;;4997608;28;20458;-61
2020/12/25 00:23:45;;;;;;;4.50;3.13;;;5.70;99.90;;;;;;4996215;28;20468;-61
2020/12/25 00:26:11;;;;;;;7.30;2.90;;;5.70;99.90;;;;;;4996254;28;20516;-59
2020/12/25 00:28:40;;;;;;;4.43;3.20;;;5.60;99.90;;;;;;4997749;28;20769;-61
2020/12/25 00:31:06;;;;;;;3.43;2.73;;;5.60;99.90;;;;;;4998160;28;20468;-61
2020/12/25 00:33:32;;;;;;;3.33;2.60;;;5.60;99.90;;;;;;4996823;28;20516;-60
2020/12/25 00:35:58;;;;;;;4.83;3.30;;;5.60;99.90;;;;;;4996961;28;20520;-61
2020/12/25 00:38:24;;;;;;;2.67;2.47;;;5.60;99.90;;;;;;4995432;28;20920;-61
2020/12/25 00:40:50;;;;;;;6.27;4.13;;;5.60;99.90;;;;;;4995959;28;20462;-62
2020/12/25 00:43:16;;;;;;;3.80;3.20;;;5.60;99.90;;;;;;4996166;28;20809;-61
2020/12/25 00:45:43;;;;;;;3.37;3.07;;;5.60;99.90;;;;;;4995643;28;20461;-60
2020/12/25 00:48:09;;;;;;;3.00;2.60;;;5.60;99.90;;;;;;4995765;28;20516;-60
2020/12/25 00:50:37;;;;;;;4.03;2.70;;;5.60;99.90;;;;;;4995627;28;20872;-61
2020/12/25 00:53:03;;;;;;;3.13;2.83;;;5.60;99.90;;;;;;4995238;28;20469;-61
2020/12/25 00:55:29;;;;;;;7.90;3.23;;;5.60;99.90;;;;;;4995438;28;20461;-61
2020/12/25 00:57:55;;;;;;;3.60;2.37;;;5.60;99.90;;;;;;4995489;28;20490;-60
2020/12/25 01:00:21;;;;;;;3.13;2.40;;;5.60;99.90;;;;;;4995691;28;20472;-61
2020/12/25 01:02:48;;;;;;;4.07;2.80;;;5.70;99.90;;;;;;4994839;28;20557;-61
2020/12/25 01:05:14;;;;;;;4.57;2.73;;;5.70;99.90;;;;;;4995223;28;20511;-61
2020/12/25 01:07:40;;;;;;;6.70;2.57;;;5.70;99.90;;;;;;4995369;28;20485;-61
2020/12/25 01:10:06;;;;;;;3.00;2.40;;;5.70;99.90;;;;;;4995373;28;20520;-61
2020/12/25 01:12:32;;;;;;;4.00;2.53;;;5.70;99.90;;;;;;4995406;28;20461;-61
2020/12/25 01:14:58;;;;;;;3.03;2.50;;;5.70;99.90;;;;;;4995434;28;20457;-61
2020/12/25 01:17:24;;;;;;;3.10;2.80;;;5.70;99.90;;;;;;4995373;28;20454;-61
2020/12/25 01:19:51;;;;;;;3.47;2.50;;;5.70;99.90;;;;;;4995334;28;20796;-61
2020/12/25 01:22:17;;;;;;;7.70;3.10;;;5.70;99.90;;;;;;4995387;28;20583;-59
2020/12/25 01:24:43;;;;;;;3.13;2.60;;;5.70;99.90;;;;;;4995242;28;20836;-60
2020/12/25 01:27:09;;;;;;;4.73;2.90;;;5.70;99.90;;;;;;4995119;28;20469;-61
2020/12/25 01:29:36;;;;;;;3.03;2.17;;;5.60;99.90;;;;;;4996091;28;20472;-69
2020/12/25 01:32:02;;;;;;;3.10;2.83;;;5.60;99.90;;;;;;4998674;28;20454;-69
2020/12/25 01:34:28;;;;;;;5.73;2.50;;;5.60;99.90;;;;;;4998691;28;20462;-69
2020/12/25 01:36:54;;;;;;;4.00;2.03;;;5.60;99.90;;;;;;4998907;28;20462;-69
2020/12/25 01:39:20;;;;;;;2.30;2.10;;;5.60;99.90;;;;;;4998826;28;20764;-61
2020/12/25 01:41:46;;;;;;;2.97;2.00;;;5.60;99.90;;;;;;4998716;28;20796;-61
2020/12/25 01:44:13;;;;;;;4.47;2.77;;;5.60;99.90;;;;;;4998688;28;20462;-60
2020/12/25 01:46:39;;;;;;;2.20;2.00;;;5.60;99.90;;;;;;4998522;28;20496;-69
2020/12/25 01:49:05;;;;;;;4.43;2.13;;;5.50;99.90;;;;;;4998489;28;20457;-68
2020/12/25 01:51:31;;;;;;;4.10;2.00;;;5.50;99.90;;;;;;4998148;28;20493;-69
2020/12/25 01:53:59;;;;;;;2.80;1.80;;;5.50;99.90;;;;;;4998329;28;20470;-69
2020/12/25 01:56:25;;;;;;;2.43;2.23;;;5.50;99.90;;;;;;4998402;28;20473;-61
2020/12/25 01:58:51;;;;;;;2.13;1.60;;;5.50;99.90;;;;;;4998254;28;20793;-61
2020/12/25 02:01:17;;;;;;;3.30;1.53;;;5.40;99.90;;;;;;4998045;28;20477;-61
2020/12/25 02:03:43;;;;;;;2.27;1.37;;;5.40;99.90;;;;;;4997850;28;20997;-60
2020/12/25 02:06:09;;;;;;;1.60;1.50;;;5.40;99.90;;;;;;4998491;28;20788;-63
2020/12/25 02:08:36;;;;;;;2.07;1.43;;;5.40;99.90;;;;;;4999022;28;20800;-61
2020/12/25 02:11:02;;;;;;;2.03;1.70;;;5.30;99.90;;;;;;4998275;28;20458;-61
2020/12/25 02:13:30;;;;;;;1.60;1.23;;;5.30;99.90;;;;;;4998001;28;20450;-61
2020/12/25 02:15:56;;;;;;;6.43;1.50;;;5.30;99.90;;;;;;4998313;28;20496;-61
2020/12/25 02:18:22;;;;;;;2.47;1.13;;;5.30;99.90;;;;;;4997934;28;20457;-61
2020/12/25 02:20:49;;;;;;;2.53;1.50;;;5.30;99.90;;;;;;4999392;28;20524;-69
2020/12/25 02:23:16;;;;;;;1.20;1.00;;;5.20;99.90;;;;;;4997774;28;20510;-68
2020/12/25 02:25:42;;;;;;;1.73;1.27;;;5.20;99.90;;;;;;4997852;28;20469;-69
2020/12/25 02:28:08;;;;;;;1.87;1.10;;;5.20;99.90;;;;;;4997648;28;20499;-69
2020/12/25 02:30:34;;;;;;;2.07;1.07;;;5.20;99.90;;;;;;4997712;28;20791;-69
2020/12/25 02:33:00;;;;;;;1.23;1.00;;;5.20;99.90;;;;;;4997597;28;20458;-61
2020/12/25 02:35:26;;;;;;;2.60;1.20;;;5.10;99.90;;;;;;4997554;28;20462;-69
2020/12/25 02:37:52;;;;;;;1.30;1.03;;;5.10;99.90;;;;;;4997424;28;20950;-69
2020/12/25 02:40:19;;;;;;;1.40;1.00;;;5.00;99.90;;;;;;4997238;28;20776;-69
2020/12/25 02:42:45;;;;;;;1.50;1.00;;;5.00;99.90;;;;;;4997592;28;20532;-69
2020/12/25 02:45:11;;;;;;;1.90;1.40;;;5.00;99.90;;;;;;4998493;28;20467;-69
2020/12/25 02:47:37;;;;;;;2.27;1.00;;;5.00;99.90;;;;;;4998362;28;20462;-69
2020/12/25 02:50:04;;;;;;;6.13;1.20;;;5.00;99.90;;;;;;5000414;28;20485;-60
2020/12/25 02:52:30;;;;;;;4.33;1.30;;;4.90;99.90;;;;;;4999958;28;20466;-61
2020/12/25 02:54:56;;;;;;;2.00;1.03;;;4.90;99.90;;;;;;5001655;28;20958;-60
2020/12/25 02:57:23;;;;;;;2.50;1.10;;;4.90;99.90;;;;;;5002869;28;20541;-69
2020/12/25 02:59:49;;;;;;;1.10;0.87;;;4.90;99.90;;;;;;5004614;28;21043;-68
2020/12/25 03:02:16;;;;;;;1.47;1.20;;;4.90;99.90;;;;;;5003684;28;20492;-61
2020/12/25 03:04:42;;;;;;;1.20;0.90;;;4.90;99.90;;;;;;5005675;28;20599;-63
2020/12/25 03:07:08;;;;;;;1.20;1.10;;;4.90;99.90;;;;;;5003024;28;20461;-61
2020/12/25 03:09:34;;;;;;;1.70;1.10;;;4.90;99.90;;;;;;5002989;28;20454;-60
2020/12/25 03:12:00;;;;;;;1.60;1.00;;;5.00;99.90;;;;;;5001259;28;20461;-60
2020/12/25 03:14:27;;;;;;;2.80;0.90;;;5.00;99.90;;;;;;4999925;28;20523;-60
2020/12/25 03:16:53;;;;;;;1.43;1.20;;;4.90;99.90;;;;;;5003976;28;20458;-68
2020/12/25 03:19:19;;;;;;;1.10;1.00;;;4.90;99.90;;;;;;5001534;28;20461;-61
2020/12/25 03:21:45;;;;;;;1.30;1.00;;;4.90;99.90;;;;;;5001236;28;20458;-68
2020/12/25 03:24:12;;;;;;;1.30;1.20;;;4.90;99.90;;;;;;5001652;28;20496;-62
2020/12/25 03:26:38;;;;;;;1.30;0.90;;;4.90;99.90;;;;;;5002039;28;20534;-61
2020/12/25 03:29:04;;;;;;;1.27;1.10;;;5.00;99.90;;;;;;4998826;28;20504;-60
2020/12/25 03:31:31;;;;;;;1.73;1.23;;;4.90;99.90;;;;;;4998479;28;20458;-68
2020/12/25 03:33:57;;;;;;;1.90;1.27;;;5.00;99.90;;;;;;4998097;28;20508;-68
2020/12/25 03:36:24;;;;;;;2.53;1.50;;;5.00;99.90;;;;;;4998379;28;20512;-69
2020/12/25 03:38:50;;;;;;;1.80;1.50;;;5.00;99.90;;;;;;4998513;28;20919;-61
2020/12/25 03:41:16;;;;;;;3.30;1.70;;;5.00;99.90;;;;;;4999683;28;20462;-61
2020/12/25 03:43:42;;;;;;;3.00;2.00;;;5.10;99.90;;;;;;4997225;28;20489;-60
2020/12/25 03:46:09;;;;;;;2.30;1.40;;;5.10;99.90;;;;;;4998971;28;20789;-68
2020/12/25 03:48:36;;;;;;;2.20;1.20;;;5.10;99.90;;;;;;4999484;28;20450;-68
2020/12/25 03:51:02;;;;;;;1.40;1.10;;;5.10;99.90;;;;;;4998119;28;20485;-69
2020/12/25 03:53:28;;;;;;;2.10;1.27;;;5.10;99.90;;;;;;4998166;28;20792;-68
2020/12/25 03:55:54;;;;;;;1.63;1.07;;;5.10;99.90;;;;;;4998209;28;20492;-61
2020/12/25 03:58:20;;;;;;;4.53;1.23;;;5.10;99.90;;;;;;4999497;28;20553;-62
2020/12/25 04:00:46;;;;;;;2.17;1.00;;;5.10;99.90;;;;;;4997513;28;20954;-61
2020/12/25 04:03:13;;;;;;;1.30;1.10;;;5.10;99.90;;;;;;4996434;28;20859;-60
2020/12/25 04:05:40;;;;;;;2.17;1.07;;;5.10;99.90;;;;;;4996587;28;20515;-68
2020/12/25 04:08:06;;;;;;;1.80;1.10;;;5.10;99.90;;;;;;4998228;28;20458;-68
2020/12/25 04:10:33;;;;;;;1.87;1.20;;;5.10;99.90;;;;;;4997954;28;20629;-61
2020/12/25 04:13:00;;;;;;;1.40;0.97;;;5.10;99.90;;;;;;4999893;28;20454;-60
2020/12/25 04:15:26;;;;;;;1.27;1.13;;;5.00;99.90;;;;;;4999937;28;20532;-61
2020/12/25 04:17:52;;;;;;;4.13;1.23;;;5.00;99.90;;;;;;4997073;28;20491;-61
2020/12/25 04:20:19;;;;;;;1.57;1.10;;;5.00;99.90;;;;;;4997433;28;20469;-60
2020/12/25 04:22:45;;;;;;;1.37;1.00;;;5.00;99.90;;;;;;4998389;28;20489;-62
2020/12/25 04:25:12;;;;;;;2.10;1.93;;;5.00;99.90;;;;;;4996807;28;20521;-61
2020/12/25 04:27:38;;;;;;;3.33;2.60;;;5.00;99.90;;;;;;4997397;28;20465;-60
2020/12/25 04:30:04;;;;;;;2.50;1.97;;;5.00;99.90;;;;;;4997853;28;20457;-61
2020/12/25 04:32:30;;;;;;;6.53;5.00;;;5.10;99.90;;;;;;4998264;28;20465;-68
2020/12/25 04:34:56;;;;;;;2.23;1.83;;;5.10;99.90;;;;;;4996921;28;20978;-70
2020/12/25 04:37:23;;;;;;;2.10;1.13;;;5.10;99.90;;;;;;4999379;28;20513;-69
2020/12/25 04:39:51;;;;;;;1.80;1.30;;;5.10;99.90;;;;;;4999302;28;20461;-61
2020/12/25 04:42:17;;;;;;;3.03;1.43;;;5.10;99.90;;;;;;4997862;28;20481;-61
2020/12/25 04:44:43;;;;;;;1.10;1.00;;;5.10;99.90;;;;;;4995686;28;20469;-61
2020/12/25 04:47:09;;;;;;;1.50;1.20;;;5.10;99.90;;;;;;4997860;28;20616;-61
2020/12/25 04:49:36;;;;;;;1.57;1.13;;;5.10;99.90;;;;;;4997767;28;20490;-69
2020/12/25 04:52:04;;;;;;;1.30;1.20;;;5.00;99.90;;;;;;4996818;28;20458;-69
2020/12/25 04:54:30;;;;;;;1.27;1.17;;;5.00;99.90;;;;;;4996599;28;20462;-68
2020/12/25 04:56:59;;;;;;;2.13;1.10;;;4.90;99.90;;;;;;4998013;28;20462;-69
2020/12/25 04:59:26;;;;;;;1.20;1.07;;;4.80;99.90;;;;;;4998449;28;20775;-69
2020/12/25 05:01:54;;;;;;;9.33;1.57;;;4.80;99.90;;;;;;4996515;28;20466;-69
2020/12/25 05:04:21;;;;;;;1.30;1.03;;;4.80;99.90;;;;;;4997727;28;20461;-69
2020/12/25 05:06:48;;;;;;;1.63;1.10;;;4.70;99.90;;;;;;5001969;28;20462;-61
2020/12/25 05:09:16;;;;;;;1.77;1.00;;;4.70;99.90;;;;;;5001449;28;20472;-59
2020/12/25 05:11:42;;;;;;;1.27;1.17;;;4.70;99.90;;;;;;5002892;28;20469;-60
2020/12/25 05:14:09;;;;;;;1.60;1.30;;;4.60;99.90;;;;;;5003374;28;20469;-62
2020/12/25 05:16:37;;;;;;;3.90;1.10;;;4.60;99.90;;;;;;5002591;28;20462;-69
2020/12/25 05:19:06;;;;;;;1.60;1.20;;;4.60;99.90;;;;;;5003648;28;20473;-60
2020/12/25 05:21:39;;;;;;;1.40;1.10;;;4.60;99.90;;;;;;5005732;28;20521;-69
2020/12/25 05:24:07;;;;;;;1.30;1.10;;;4.70;99.90;;;;;;5004333;28;20480;-61
2020/12/25 05:26:33;;;;;;;1.53;0.90;;;4.70;99.90;;;;;;5000817;28;20458;-60
2020/12/25 05:29:00;;;;;;;2.50;1.00;;;4.70;99.90;;;;;;5001788;28;20476;-62
2020/12/25 05:31:28;;;;;;;1.50;1.00;;;4.70;99.90;;;;;;5002631;28;20604;-62
2020/12/25 05:33:58;;;;;;;3.47;0.93;;;4.70;99.90;;;;;;4998809;28;20464;-61
2020/12/25 05:36:31;;;;;;;1.50;1.20;;;4.70;99.90;;;;;;4999105;28;20784;-68
2020/12/25 05:38:57;;;;;;;1.10;0.80;;;4.80;99.90;;;;;;5001636;28;20772;-68
2020/12/25 05:41:25;;;;;;;1.57;1.00;;;4.80;99.90;;;;;;5005646;28;20492;-68
2020/12/25 05:43:52;;;;;;;1.00;0.77;;;4.80;99.90;;;;;;4999302;28;20492;-68
2020/12/25 05:46:19;;;;;;;1.40;0.80;;;4.90;99.90;;;;;;5004233;28;20938;-69
2020/12/25 05:48:51;;;;;;;1.70;0.97;;;4.90;99.90;;;;;;5004704;28;20473;-69
2020/12/25 05:51:17;;;;;;;1.53;0.90;;;4.90;99.90;;;;;;5003075;28;20486;-69
2020/12/25 05:53:44;;;;;;;2.80;0.90;;;4.90;99.90;;;;;;5004119;28;21040;-69
2020/12/25 05:56:14;;;;;;;2.23;0.70;;;4.90;99.90;;;;;;5003571;28;20458;-69
2020/12/25 05:58:44;;;;;;;2.10;1.00;;;4.90;99.90;;;;;;5005393;28;20920;-70
2020/12/25 06:01:10;;;;;;;1.10;0.90;;;4.90;99.90;;;;;;5005704;28;20462;-69
2020/12/25 06:03:37;;;;;;;2.03;0.90;;;4.90;99.90;;;;;;4998553;28;20489;-61
2020/12/25 06:06:11;;;;;;;1.63;0.90;;;4.90;99.90;;;;;;5001094;28;20457;-61
2020/12/25 06:08:45;;;;;;;1.30;1.00;;;4.90;99.90;;;;;;5003248;28;20438;-61
2020/12/25 06:11:15;;;;;;;1.53;1.13;;;4.80;99.90;;;;;;5001952;28;20438;-60
2020/12/25 06:13:43;;;;;;;1.20;1.07;;;4.70;99.90;;;;;;4998067;28;20797;-60
2020/12/25 06:16:13;;;;;;;1.10;0.90;;;4.70;99.90;;;;;;5000021;28;20527;-61
2020/12/25 06:18:48;;;;;;;2.17;1.20;;;4.60;99.90;;;;;;5006177;28;20520;-61
2020/12/25 06:21:22;;;;;;;1.73;1.40;;;4.60;99.90;;;;;;5005311;28;20465;-70
2020/12/25 06:23:49;;;;;;;3.00;1.50;;;4.50;99.90;;;;;;5003407;28;20501;-69
2020/12/25 06:26:18;;;;;;;1.30;1.20;;;4.50;99.90;;;;;;5000729;28;20465;-69
2020/12/25 06:28:44;;;;;;;2.07;1.20;;;4.50;99.90;;;;;;4999819;28;20572;-60
2020/12/25 06:31:30;;;;;;;1.70;1.47;;;4.40;99.90;;;;;;4998464;28;20454;-60
2020/12/25 06:33:57;;;;;;;3.27;1.30;;;4.40;99.90;;;;;;4997808;28;20454;-63
2020/12/25 06:36:28;;;;;;;1.60;1.50;;;4.40;99.90;;;;;;5001346;28;20517;-60
2020/12/25 06:38:56;;;;;;;3.23;1.53;;;4.40;99.90;;;;;;5001202;28;20449;-61
2020/12/25 06:41:22;;;;;;;1.57;1.23;;;4.40;99.90;;;;;;4998254;28;20462;-64
2020/12/25 06:43:49;;;;;;;2.20;1.40;;;4.40;99.90;;;;;;4997841;28;20482;-64
2020/12/25 06:46:27;;;;;;;1.67;1.20;;;4.40;99.90;;;;;;4997891;28;20494;-59
2020/12/25 06:48:53;;;;;;;1.60;1.30;;;4.40;99.90;;;;;;5000882;28;20791;-64
2020/12/25 06:51:23;;;;;;;2.23;1.20;;;4.30;99.90;;;;;;5000540;28;20485;-61
2020/12/25 06:53:49;;;;;;;1.53;1.40;;;4.40;99.90;;;;;;4998072;28;20458;-60
2020/12/25 06:56:17;;;;;;;1.40;1.20;;;4.40;99.90;;;;;;5001275;28;20465;-60
2020/12/25 06:58:45;;;;;;;1.60;1.40;;;4.40;99.90;;;;;;5000746;28;20458;-59
2020/12/25 07:01:13;;;;;;;1.73;1.43;;;4.40;99.90;;;;;;4997443;28;20469;-59
2020/12/25 07:03:39;;;;;;;2.67;1.70;;;4.30;99.90;;;;;;4997412;28;20489;-60
2020/12/25 07:06:08;;;;;;;1.50;1.40;;;4.40;99.90;;;;;;4999786;28;20461;-60
2020/12/25 07:08:49;;;;;;;6.87;1.53;;;4.40;99.90;;;;;;4997862;28;20457;-60
2020/12/25 07:11:18;;;;;;;1.43;1.30;;;4.40;99.90;;;;;;4997910;28;20452;-65
2020/12/25 07:13:44;;;;;;;1.30;1.20;;;4.40;99.90;;;;;;4999003;28;20780;-64
2020/12/25 07:16:10;;;;;;;1.50;1.27;;;4.40;99.90;;;;;;4997194;28;20462;-64
2020/12/25 07:18:37;;;;;;;2.27;1.40;;;4.40;99.90;;;;;;4999429;28;20457;-65
2020/12/25 07:21:05;;;;;;;1.43;1.27;;;4.40;99.90;;;;;;5001461;28;20567;-66
2020/12/25 07:23:31;;;;;;;2.23;1.03;;;4.40;99.90;;;;;;4997750;28;20478;-64
2020/12/25 07:25:59;;;;;;;1.73;1.40;;;4.40;99.90;;;;;;4997621;28;20466;-65
2020/12/25 07:28:26;;;;;;;2.70;1.43;;;4.40;99.90;;;;;;4998177;28;20454;-61
2020/12/25 07:30:54;;;;;;;1.53;1.40;;;4.30;99.90;;;;;;4998572;28;20550;-59
2020/12/25 07:33:20;;;;;;;4.00;1.40;;;4.30;99.90;;;;;;5000270;28;20466;-60
2020/12/25 07:35:47;;;;;;;1.67;1.57;;;4.30;99.90;;;;;;5000210;28;20472;-58
2020/12/25 07:38:13;;;;;;;2.00;1.70;;;4.30;99.90;;;;;;5000060;28;20545;-60
2020/12/25 07:40:40;;;;;;;3.83;1.70;;;4.30;99.90;;;;;;5000287;28;20458;-59
2020/12/25 07:43:08;;;;;;;1.90;1.07;;;4.30;99.90;;;;;;4999682;28;20478;-60
2020/12/25 07:45:35;;;;;;;2.00;1.50;;;4.30;99.90;;;;;;4999973;28;20454;-58
2020/12/25 07:48:03;;;;;;;1.23;1.13;;;4.30;99.90;;;;;;4998592;28;20462;-60
2020/12/25 07:50:34;;;;;;;1.83;1.00;;;4.40;99.90;;;;;;4999812;28;20527;-60
2020/12/25 07:53:00;;;;;;;2.17;1.30;;;4.40;99.90;;;;;;4999269;28;20911;-59
2020/12/25 07:55:28;;;;;;;2.67;1.27;;;4.40;99.90;;;;;;5001590;28;20983;-60
2020/12/25 07:57:54;;;;;;;2.50;1.30;;;4.40;99.90;;;;;;5000106;28;20458;-60
2020/12/25 08:00:21;;;;;;;1.50;1.13;;;4.40;99.90;;;;;;4997583;28;20553;-60
2020/12/25 08:02:51;;;;;;;2.47;1.10;;;4.40;99.90;;;;;;4997433;28;20481;-59
2020/12/25 08:05:17;;;;;;;1.40;1.10;;;4.50;99.90;;;;;;5001174;28;20964;-60
2020/12/25 08:07:43;;;;;;;1.90;1.43;;;4.50;99.90;;;;;;5000006;28;20943;-59
2020/12/25 08:10:13;;;;;;;5.73;1.30;;;4.50;99.90;;;;;;4998549;28;20760;-60
2020/12/25 08:12:43;;;;;;;1.63;1.00;;;4.50;99.90;;;;;;4998481;28;20597;-59
2020/12/25 08:15:11;;;;;;;1.20;1.00;;;4.50;99.90;;;;;;4997660;28;20525;-61
2020/12/25 08:17:38;;;;;;;3.90;1.03;;;4.50;99.90;;;;;;4999262;28;20470;-58
2020/12/25 08:20:05;;;;;;;2.80;1.07;;;4.50;99.90;;;;;;5000946;28;20481;-59
2020/12/25 08:22:31;;;;;;;1.60;1.10;;;4.50;99.90;;;;;;4999889;28;20473;-59
2020/12/25 08:24:59;;;;;;;1.30;0.83;;;4.50;99.90;;;;;;4998044;28;20467;-60
2020/12/25 08:27:31;;;;;;;2.30;0.90;;;4.50;99.90;;;;;;4996784;28;20458;-59
2020/12/25 08:30:00;;;;;;;1.90;1.07;;;4.50;99.90;;;;;;4997907;28;20775;-60
2020/12/25 08:32:26;;;;;;;1.47;1.37;;;4.50;99.90;;;;;;4999288;28;20454;-59
2020/12/25 08:35:09;;;;;;;1.43;1.10;;;4.50;99.90;;;;;;4998545;28;20454;-58
2020/12/25 08:37:35;;;;;;;2.20;0.90;;;4.50;99.90;;;;;;4999405;28;20438;-60
2020/12/25 08:40:12;;;;;;;2.90;1.57;;;4.50;99.90;;;;;;5001020;28;20458;-60
2020/12/25 08:42:39;;;;;;;2.20;1.00;;;4.50;99.90;;;;;;5003235;28;20496;-58
2020/12/25 08:45:05;;;;;;;3.53;1.30;;;4.50;99.90;;;;;;5000971;28;20791;-61
2020/12/25 08:47:31;;;;;;;1.50;1.17;;;4.50;99.90;;;;;;5002388;28;20462;-60
2020/12/25 08:49:57;;;;;;;2.43;1.13;;;4.50;99.90;;;;;;5000963;28;20485;-58
2020/12/25 08:52:24;;;;;;;1.10;0.80;;;4.50;99.90;;;;;;5000559;28;20453;-59
2020/12/25 08:54:54;;;;;;;1.47;1.10;;;4.50;99.90;;;;;;5003028;28;20468;-65
2020/12/25 08:57:21;;;;;;;1.50;1.20;;;4.50;99.90;;;;;;5002202;28;20453;-66
2020/12/25 08:59:47;;;;;;;1.20;1.07;;;4.50;99.90;;;;;;5000284;28;20462;-60
2020/12/25 09:02:15;;;;;;;2.87;1.20;;;4.40;99.90;;;;;;5000138;28;20461;-59
2020/12/25 09:04:41;;;;;;;1.50;1.40;;;4.40;99.90;;;;;;5002037;28;20454;-61
2020/12/25 09:07:07;;;;;;;2.83;1.30;;;4.40;99.90;;;;;;5002754;28;20458;-60
2020/12/25 09:09:34;;;;;;;1.20;1.03;;;4.40;99.90;;;;;;5001763;28;20458;-61
2020/12/25 09:12:01;;;;;;;2.07;1.67;;;4.40;99.90;;;;;;5000939;28;20974;-59
2020/12/25 09:14:27;;;;;;;1.77;1.43;;;4.40;99.90;;;;;;5000155;28;20515;-61
2020/12/25 09:16:53;;;;;;;1.67;1.53;;;4.40;99.90;;;;;;5000738;28;20465;-61
2020/12/25 09:19:19;;;;;;;4.03;1.10;;;4.50;99.90;;;;;;5000020;28;20842;-60
2020/12/25 09:21:46;;;;;;;1.20;1.10;;;4.50;99.90;;;;;;5000266;28;20457;-66
2020/12/25 09:24:12;;;;;;;2.03;1.50;;;4.40;99.90;;;;;;4999405;28;20493;-65
2020/12/25 09:26:39;;;;;;;1.50;1.40;;;4.50;99.90;;;;;;5001771;28;20457;-66
2020/12/25 09:29:05;;;;;;;3.70;1.40;;;4.50;99.90;;;;;;5000758;28;20794;-60
2020/12/25 09:31:31;;;;;;;2.50;1.53;;;4.60;99.90;;;;;;5000360;28;20919;-60
2020/12/25 09:33:58;;;;;;;2.33;1.27;;;4.60;99.90;;;;;;4999979;28;20458;-59
2020/12/25 09:36:24;;;;;;;2.50;1.43;;;4.70;99.90;;;;;;5000871;28;20472;-60
2020/12/25 09:38:50;;;;;;;1.70;1.40;;;4.80;99.90;;;;;;5000093;28;20927;-60
2020/12/25 09:41:16;;;;;;;2.57;1.57;;;4.80;99.90;;;;;;5000077;28;20450;-61
2020/12/25 09:43:43;;;;;;;2.00;1.47;;;4.90;99.90;;;;;;4998456;28;20799;-59
2020/12/25 09:46:09;;;;;;;3.67;1.30;;;4.90;99.90;;;;;;4999800;28;20560;-61
2020/12/25 09:48:35;;;;;;;2.40;1.33;;;4.90;99.90;;;;;;4998427;28;20493;-60
2020/12/25 09:51:02;;;;;;;3.23;1.30;;;4.90;99.90;;;;;;4997263;28;20970;-60
2020/12/25 09:53:28;;;;;;;7.33;2.53;;;4.90;99.90;;;;;;4998636;28;20493;-59
2020/12/25 09:55:54;;;;;;;2.97;1.47;;;4.90;99.90;;;;;;4998036;28;20469;-59
2020/12/25 09:58:20;;;;;;;1.30;1.20;;;4.90;99.90;;;;;;4998811;28;20472;-58
2020/12/25 10:00:47;;;;;;;1.93;1.30;;;4.90;99.90;;;;;;4998040;28;20466;-59
2020/12/25 10:03:13;;;;;;;2.40;1.33;;;4.90;99.90;;;;;;4998215;28;20532;-58
2020/12/25 10:05:39;;;;;;;2.50;1.20;;;4.80;99.90;;;;;;4997852;28;20469;-58
2020/12/25 10:08:05;;;;;;;1.53;1.30;;;4.80;99.90;;;;;;4997950;28;20488;-58
2020/12/25 10:10:32;;;;;;;1.80;1.47;;;4.80;99.90;;;;;;4998314;28;20454;-57
2020/12/25 10:12:58;;;;;;;1.40;1.30;;;4.90;99.90;;;;;;4998431;28;20571;-59
2020/12/25 10:15:24;;;;;;;1.90;1.43;;;4.80;99.90;;;;;;4998103;28;20458;-57
2020/12/25 10:17:51;;;;;;;3.27;1.90;;;4.80;99.90;;;;;;4998133;28;20462;-58
2020/12/25 10:20:18;;;;;;;1.93;1.50;;;4.90;99.90;;;;;;4998137;28;20520;-58
2020/12/25 10:22:44;;;;;;;1.90;1.50;;;4.90;99.90;;;;;;4997673;28;20482;-58
2020/12/25 10:25:10;;;;;;;1.70;1.60;;;5.00;99.90;;;;;;4998158;28;20465;-58
2020/12/25 10:27:36;;;;;;;2.60;1.20;;;5.00;99.90;;;;;;4997961;28;20458;-58
2020/12/25 10:30:02;;;;;;;1.83;1.20;;;5.00;99.90;;;;;;4997552;28;20470;-57
2020/12/25 10:32:29;;;;;;;2.47;1.50;;;5.10;99.90;;;;;;4997506;28;20458;-58
2020/12/25 10:34:55;;;;;;;2.93;1.13;;;5.10;99.90;;;;;;4997647;28;20469;-57
2020/12/25 10:37:21;;;;;;;1.30;1.20;;;5.10;99.90;;;;;;4997667;28;20450;-59
2020/12/25 10:39:48;;;;;;;1.70;1.20;;;5.10;99.90;;;;;;4997239;28;20461;-58
2020/12/25 10:42:14;;;;;;;1.53;1.30;;;5.10;99.90;;;;;;4997412;28;20458;-57
2020/12/25 10:44:40;;;;;;;2.03;1.27;;;5.10;99.90;;;;;;4997491;28;20464;-58
2020/12/25 10:47:06;;;;;;;1.90;1.33;;;5.10;99.90;;;;;;4997455;28;20453;-59
2020/12/25 10:49:33;;;;;;;2.60;1.23;;;5.10;99.90;;;;;;4997525;28;20521;-59
2020/12/25 10:52:00;;;;;;;2.60;1.53;;;5.10;99.90;;;;;;4997739;28;20438;-59
2020/12/25 10:54:26;;;;;;;1.83;1.27;;;5.10;99.90;;;;;;4997153;28;20476;-59
2020/12/25 10:56:52;;;;;;;2.33;1.33;;;5.10;99.90;;;;;;4997313;28;20472;-59
2020/12/25 10:59:18;;;;;;;1.23;1.13;;;5.10;99.90;;;;;;4997471;28;20464;-57
2020/12/25 11:01:46;;;;;;;4.33;2.00;;;5.10;99.90;;;;;;4996176;28;20454;-58
2020/12/25 11:04:13;;;;;;;2.57;1.33;;;5.00;99.90;;;;;;4996818;28;20517;-59
2020/12/25 11:06:39;;;;;;;2.47;1.63;;;5.00;99.90;;;;;;4997383;28;20520;-57
2020/12/25 11:09:08;;;;;;;4.23;2.63;;;5.10;99.90;;;;;;4996860;28;20762;-58
2020/12/25 11:11:36;;;;;;;2.37;1.73;;;5.10;99.90;;;;;;4997135;28;20468;-58
2020/12/25 11:14:03;;;;;;;2.83;2.20;;;5.10;99.90;;;;;;4997122;28;20823;-67
2020/12/25 11:16:31;;;;;;;1.80;1.50;;;5.10;99.90;;;;;;4997064;28;20466;-68
2020/12/25 11:18:59;;;;;;;2.53;1.70;;;5.10;99.90;;;;;;4996965;28;20492;-66
2020/12/25 11:21:26;;;;;;;2.33;1.70;;;5.10;99.90;;;;;;5000237;28;20489;-68
2020/12/25 11:23:53;;;;;;;2.80;1.27;;;5.10;99.90;;;;;;4996916;28;20477;-68
2020/12/25 11:26:21;;;;;;;1.83;1.60;;;5.10;99.90;;;;;;4997851;28;20793;-68
2020/12/25 11:28:47;;;;;;;1.40;1.17;;;5.10;99.90;;;;;;4999503;28;20462;-67
2020/12/25 11:31:14;;;;;;;1.50;1.30;;;5.10;99.90;;;;;;4997392;28;20462;-68
2020/12/25 11:33:41;;;;;;;1.37;1.20;;;5.10;99.90;;;;;;4997491;28;20469;-67
2020/12/25 11:36:11;;;;;;;2.40;1.43;;;5.10;99.90;;;;;;5001331;28;20465;-67
2020/12/25 11:38:37;;;;;;;2.07;1.87;;;5.10;99.90;;;;;;4999491;28;20473;-67
2020/12/25 11:41:03;;;;;;;2.00;1.33;;;5.20;99.90;;;;;;4997021;28;20508;-69
2020/12/25 11:43:30;;;;;;;1.70;1.60;;;5.20;99.90;;;;;;4997469;28;20509;-68
2020/12/25 11:45:58;;;;;;;2.43;1.30;;;5.20;99.90;;;;;;5000854;28;20938;-68
2020/12/25 11:48:24;;;;;;;1.57;1.40;;;5.20;99.90;;;;;;4997647;28;20816;-69
2020/12/25 11:50:50;;;;;;;3.10;1.70;;;5.20;99.90;;;;;;4995990;28;20478;-70
2020/12/25 11:53:16;;;;;;;2.13;1.60;;;5.10;99.90;;;;;;4996762;28;20458;-67
2020/12/25 11:55:42;;;;;;;2.07;1.90;;;5.10;99.90;;;;;;4997762;28;20476;-66
2020/12/25 11:58:08;;;;;;;2.27;1.60;;;5.10;99.90;;;;;;4997589;28;20762;-67
2020/12/25 12:00:35;;;;;;;1.80;1.50;;;5.10;99.90;;;;;;4997159;28;20517;-71
2020/12/25 12:03:01;;;;;;;2.23;1.47;;;5.10;99.90;;;;;;4999212;28;20492;-69
2020/12/25 12:05:27;;;;;;;2.10;1.37;;;5.10;99.90;;;;;;4996618;28;20529;-69
2020/12/25 12:07:54;;;;;;;2.63;1.33;;;5.00;99.90;;;;;;4996871;28;20462;-69
2020/12/25 12:10:20;;;;;;;3.00;1.53;;;5.00;99.90;;;;;;4996938;28;20547;-69
2020/12/25 12:12:46;;;;;;;2.23;1.43;;;5.00;99.90;;;;;;4996606;28;20458;-56
2020/12/25 12:15:12;;;;;;;1.73;1.30;;;5.00;99.90;;;;;;4996247;28;20791;-58
2020/12/25 12:17:39;;;;;;;1.60;1.50;;;5.00;99.90;;;;;;4996733;28;20534;-67
2020/12/25 12:20:05;;;;;;;2.03;1.20;;;4.90;99.90;;;;;;4998506;28;20485;-58
2020/12/25 12:22:31;;;;;;;3.30;1.50;;;4.90;99.90;;;;;;4998105;28;20462;-57
2020/12/25 12:24:57;;;;;;;3.43;1.50;;;4.80;99.90;;;;;;4997167;28;20556;-61
2020/12/25 12:27:23;;;;;;;3.00;1.70;;;4.80;99.90;;;;;;4996780;28;20472;-61
2020/12/25 12:29:49;;;;;;;3.17;1.30;;;4.80;99.90;;;;;;4995958;28;20453;-62
2020/12/25 12:32:15;;;;;;;1.90;1.43;;;4.80;99.90;;;;;;4995454;28;20520;-61
2020/12/25 12:34:42;;;;;;;2.80;1.50;;;4.80;99.90;;;;;;4995853;28;20457;-61
2020/12/25 12:37:08;;;;;;;2.10;1.90;;;4.80;99.90;;;;;;4995448;28;20473;-62
2020/12/25 12:39:34;;;;;;;1.77;1.67;;;4.80;99.90;;;;;;4995578;28;20484;-61
2020/12/25 12:42:00;;;;;;;2.37;1.80;;;4.80;99.90;;;;;;4995886;28;20457;-63
2020/12/25 12:44:27;;;;;;;2.37;1.60;;;4.80;99.90;;;;;;4995725;28;20482;-62
2020/12/25 12:46:53;;;;;;;2.30;1.30;;;4.80;99.90;;;;;;4995512;28;20468;-62
2020/12/25 12:49:20;;;;;;;2.20;1.53;;;4.80;99.90;;;;;;4995861;28;20462;-61
2020/12/25 12:51:47;;;;;;;2.13;1.70;;;4.80;99.90;;;;;;4996110;28;20446;-61
2020/12/25 12:54:13;;;;;;;1.87;1.40;;;4.90;99.90;;;;;;4995200;28;20458;-61
2020/12/25 12:56:39;;;;;;;1.33;1.23;;;4.80;99.90;;;;;;4995544;28;20867;-61